createdAt,value
2018-02-10T00:01:07.848Z,80.47
2018-02-10T00:03:35.404Z,78.13
2018-02-10T00:06:04.458Z,77.37
2018-02-10T00:08:32.211Z,84.13
2018-02-10T00:10:59.889Z,76.47
2018-02-10T00:13:28.185Z,82.20
2018-02-10T00:15:55.961Z,77.80
2018-02-10T00:18:23.565Z,79.70
2018-02-10T00:20:51.155Z,79.65
2018-02-10T00:23:20.368Z,86.17
2018-02-10T00:25:48.709Z,85.68
2018-02-10T00:28:16.323Z,77.83
2018-02-10T00:30:43.932Z,72.10
2018-02-10T00:33:12.473Z,77.53
2018-02-10T00:35:40.046Z,78.07
2018-02-10T00:38:08.429Z,77.03
2018-02-10T00:40:36.038Z,86.20
2018-02-10T00:43:04.368Z,87.57
2018-02-10T00:45:31.958Z,88.20
2018-02-10T00:48:00.499Z,79.28
2018-02-10T00:50:28.837Z,88.25
2018-02-10T00:52:56.380Z,86.22
2018-02-10T00:55:24.883Z,87.90
2018-02-10T00:57:53.273Z,88.20
2018-02-10T01:00:20.971Z,97.70
2018-02-10T01:02:49.296Z,87.07
2018-02-10T01:05:16.907Z,112.03
2018-02-10T01:07:44.524Z,95.82
2018-02-10T01:10:12.082Z,90.25
2018-02-10T01:12:39.688Z,92.55
2018-02-10T01:15:08.935Z,89.70
2018-02-10T01:17:36.483Z,92.70
2018-02-10T01:20:05.053Z,107.45
2018-02-10T01:22:34.053Z,100.28
2018-02-10T01:25:01.639Z,103.60
2018-02-10T01:27:29.251Z,98.80
2018-02-10T01:29:56.826Z,111.20
2018-02-10T01:32:24.464Z,103.00
2018-02-10T01:34:52.046Z,96.90
2018-02-10T01:37:19.588Z,111.37
2018-02-10T01:39:47.210Z,111.10
2018-02-10T01:42:14.924Z,114.62
2018-02-10T01:44:42.543Z,103.87
2018-02-10T01:47:10.141Z,99.95
2018-02-10T01:49:37.768Z,114.40
2018-02-10T01:52:05.317Z,101.97
2018-02-10T01:54:33.708Z,117.55
2018-02-10T01:57:01.246Z,112.25
2018-02-10T01:59:28.823Z,105.85
2018-02-10T02:01:56.386Z,105.37
2018-02-10T02:04:24.022Z,115.70
2018-02-10T02:06:51.579Z,104.07
2018-02-10T02:09:19.302Z,125.87
2018-02-10T02:11:46.910Z,112.47
2018-02-10T02:14:14.465Z,125.03
2018-02-10T02:16:42.082Z,111.68
2018-02-10T02:19:09.793Z,119.37
2018-02-10T02:21:37.444Z,114.25
2018-02-10T02:24:06.346Z,125.60
2018-02-10T02:26:34.061Z,115.00
2018-02-10T02:29:01.659Z,114.18
2018-02-10T02:31:29.222Z,114.55
2018-02-10T02:33:56.820Z,112.97
2018-02-10T02:36:25.181Z,118.93
2018-02-10T02:38:52.748Z,106.12
2018-02-10T02:41:20.320Z,100.50
2018-02-10T02:43:47.997Z,102.90
2018-02-10T02:46:15.587Z,112.85
2018-02-10T02:48:43.266Z,116.45
2018-02-10T02:51:10.874Z,104.75
2018-02-10T02:53:38.439Z,115.85
2018-02-10T02:56:05.988Z,97.80
2018-02-10T02:58:34.383Z,108.45
2018-02-10T03:01:02.039Z,106.57
2018-02-10T03:03:29.648Z,116.43
2018-02-10T03:05:57.260Z,110.12
2018-02-10T03:08:24.927Z,99.15
2018-02-10T03:10:52.495Z,107.72
2018-02-10T03:13:20.101Z,98.65
2018-02-10T03:15:47.673Z,109.65
2018-02-10T03:18:16.031Z,109.57
2018-02-10T03:20:43.611Z,107.18
2018-02-10T03:23:11.209Z,101.40
2018-02-10T03:25:38.791Z,105.97
2018-02-10T03:28:06.364Z,96.63
2018-02-10T03:30:35.671Z,93.22
2018-02-10T03:33:03.287Z,95.22
2018-02-10T03:35:30.866Z,99.97
2018-02-10T03:37:58.481Z,105.40
2018-02-10T03:40:26.140Z,110.40
2018-02-10T03:42:53.815Z,108.03
2018-02-10T03:45:21.401Z,96.93
2018-02-10T03:47:48.996Z,102.87
2018-02-10T03:50:17.341Z,96.95
2018-02-10T03:52:44.924Z,99.78
2018-02-10T03:55:12.503Z,95.97
2018-02-10T03:57:40.105Z,101.25
2018-02-10T04:00:07.698Z,90.28
2018-02-10T04:02:35.317Z,94.22
2018-02-10T04:05:02.918Z,94.95
2018-02-10T04:07:31.248Z,104.15
2018-02-10T04:09:58.806Z,94.18
2018-02-10T04:12:27.162Z,94.68
2018-02-10T04:14:54.745Z,91.53
2018-02-10T04:17:22.354Z,91.85
2018-02-10T04:19:49.957Z,100.03
2018-02-10T04:22:17.543Z,87.93
2018-02-10T04:24:45.131Z,97.12
2018-02-10T04:27:12.720Z,100.87
2018-02-10T04:29:40.350Z,90.93
2018-02-10T04:32:07.921Z,81.07
2018-02-10T04:34:35.504Z,98.35
2018-02-10T04:37:03.367Z,91.55
2018-02-10T04:39:31.752Z,94.10
2018-02-10T04:41:59.378Z,93.20
2018-02-10T04:44:26.938Z,82.50
2018-02-10T04:46:54.538Z,94.20
2018-02-10T04:49:22.122Z,90.78
2018-02-10T04:51:49.669Z,86.72
2018-02-10T04:54:17.243Z,95.30
2018-02-10T04:56:44.787Z,94.10
2018-02-10T04:59:13.153Z,108.03
2018-02-10T05:01:41.462Z,83.70
2018-02-10T05:04:09.086Z,86.35
2018-02-10T05:06:36.680Z,85.30
2018-02-10T05:09:04.338Z,90.90
2018-02-10T05:11:32.687Z,96.65
2018-02-10T05:14:00.265Z,89.55
2018-02-10T05:16:27.940Z,86.63
2018-02-10T05:18:55.513Z,90.95
2018-02-10T05:21:23.097Z,86.82
2018-02-10T05:23:50.688Z,86.20
2018-02-10T05:26:18.253Z,88.30
2018-02-10T05:28:45.938Z,86.03
2018-02-10T05:31:13.529Z,83.10
2018-02-10T05:33:41.076Z,85.25
2018-02-10T05:36:08.724Z,79.43
2018-02-10T05:38:36.292Z,82.30
2018-02-10T05:41:04.758Z,82.60
2018-02-10T05:43:32.333Z,82.90
2018-02-10T05:45:59.941Z,88.93
2018-02-10T05:48:28.369Z,86.28
2018-02-10T05:50:56.002Z,81.93
2018-02-10T05:53:23.672Z,84.37
2018-02-10T05:55:51.259Z,81.37
2018-02-10T05:58:18.857Z,85.12
2018-02-10T06:00:46.445Z,85.62
2018-02-10T06:03:14.093Z,78.50
2018-02-10T06:05:41.688Z,77.62
2018-02-10T06:08:10.010Z,77.00
2018-02-10T06:10:38.536Z,79.00
2018-02-10T06:13:06.235Z,89.78
2018-02-10T06:15:34.682Z,76.60
2018-02-10T06:18:02.399Z,77.07
2018-02-10T06:20:30.015Z,92.87
2018-02-10T06:22:58.353Z,76.70
2018-02-10T06:25:26.719Z,82.40
2018-02-10T06:27:54.325Z,77.78
2018-02-10T06:30:22.027Z,82.03
2018-02-10T06:32:49.638Z,83.07
2018-02-10T06:35:18.534Z,77.87
2018-02-10T06:37:46.096Z,77.23
2018-02-10T06:40:13.771Z,83.77
2018-02-10T06:42:41.342Z,82.10
2018-02-10T06:45:08.951Z,73.33
2018-02-10T06:47:36.636Z,74.07
2018-02-10T06:50:05.572Z,93.27
2018-02-10T06:52:35.094Z,78.33
2018-02-10T06:55:03.410Z,78.67
2018-02-10T06:57:30.956Z,82.83
2018-02-10T06:59:58.548Z,82.78
2018-02-10T07:02:26.196Z,83.37
2018-02-10T07:04:53.934Z,82.17
2018-02-10T07:07:21.555Z,72.40
2018-02-10T07:09:49.190Z,71.35
2018-02-10T07:12:17.495Z,77.10
2018-02-10T07:14:45.064Z,76.87
2018-02-10T07:17:12.656Z,70.17
2018-02-10T07:19:40.219Z,80.10
2018-02-10T07:22:07.795Z,75.90
2018-02-10T07:24:36.135Z,71.47
2018-02-10T07:27:04.994Z,79.20
2018-02-10T07:29:32.593Z,70.17
2018-02-10T07:32:00.194Z,78.97
2018-02-10T07:34:28.018Z,76.77
2018-02-10T07:36:55.587Z,76.67
2018-02-10T07:39:23.155Z,76.00
2018-02-10T07:41:50.704Z,72.10
2018-02-10T07:44:18.288Z,72.27
2018-02-10T07:46:45.836Z,74.73
2018-02-10T07:49:14.184Z,71.30
2018-02-10T07:51:41.771Z,68.90
2018-02-10T07:54:09.372Z,81.30
2018-02-10T07:56:37.703Z,68.27
2018-02-10T08:01:38.014Z,68.50
2018-02-10T08:04:06.511Z,75.13
2018-02-10T08:06:34.566Z,70.27
2018-02-10T08:09:03.354Z,72.27
2018-02-10T08:11:31.692Z,72.77
2018-02-10T08:14:00.097Z,70.63
2018-02-10T08:16:28.490Z,75.50
2018-02-10T08:18:56.136Z,65.87
2018-02-10T08:21:23.735Z,73.90
2018-02-10T08:23:51.288Z,70.27
2018-02-10T08:26:18.871Z,66.37
2018-02-10T08:28:46.443Z,85.63
2018-02-10T08:31:14.807Z,70.07
2018-02-10T08:33:43.170Z,83.33
2018-02-10T08:36:10.734Z,76.23
2018-02-10T08:38:38.402Z,71.87
2018-02-10T08:41:06.013Z,69.07
2018-02-10T08:43:34.308Z,70.40
2018-02-10T08:46:02.032Z,76.40
2018-02-10T08:48:29.588Z,72.97
2018-02-10T08:50:57.900Z,90.87
2018-02-10T08:53:25.575Z,72.83
2018-02-10T08:55:53.163Z,68.30
2018-02-10T08:58:20.784Z,82.63
2018-02-10T09:00:48.404Z,99.23
2018-02-10T09:03:16.013Z,77.17
2018-02-10T09:05:43.644Z,68.97
2018-02-10T09:08:12.079Z,73.03
2018-02-10T09:10:39.698Z,77.10
2018-02-10T09:13:07.349Z,78.50
2018-02-10T09:15:36.051Z,81.03
2018-02-10T09:18:04.331Z,76.03
2018-02-10T09:20:32.048Z,78.13
2018-02-10T09:22:59.698Z,73.33
2018-02-10T09:25:27.366Z,80.83
2018-02-10T09:27:55.004Z,101.37
2018-02-10T09:30:22.605Z,77.70
2018-02-10T09:32:51.013Z,66.87
2018-02-10T09:35:18.569Z,76.60
2018-02-10T09:37:46.270Z,61.40
2018-02-10T09:40:14.761Z,75.80
2018-02-10T09:42:42.435Z,88.97
2018-02-10T09:45:10.132Z,88.60
2018-02-10T09:47:38.547Z,96.93
2018-02-10T09:50:06.152Z,77.10
2018-02-10T09:52:34.787Z,98.80
2018-02-10T09:55:02.484Z,71.93
2018-02-10T09:57:30.246Z,66.43
2018-02-10T09:59:57.872Z,62.27
2018-02-10T10:02:26.558Z,73.20
2018-02-10T10:04:54.224Z,67.70
2018-02-10T10:07:21.851Z,66.13
2018-02-10T10:09:49.449Z,60.23
2018-02-10T10:12:17.851Z,64.60
2018-02-10T10:14:45.532Z,69.90
2018-02-10T10:17:13.989Z,65.37
2018-02-10T10:19:42.342Z,63.90
2018-02-10T10:22:10.028Z,72.90
2018-02-10T10:24:37.696Z,76.27
2018-02-10T10:27:05.961Z,61.00
2018-02-10T10:29:34.467Z,60.67
2018-02-10T10:32:02.079Z,64.60
2018-02-10T10:34:30.515Z,65.83
2018-02-10T10:36:58.152Z,63.23
2018-02-10T10:39:25.926Z,69.60
2018-02-10T10:41:54.335Z,70.00
2018-02-10T10:44:21.912Z,76.70
2018-02-10T10:46:49.525Z,71.50
2018-02-10T10:49:17.139Z,75.27
2018-02-10T10:51:44.691Z,60.23
2018-02-10T10:54:12.277Z,80.67
2018-02-10T10:56:39.817Z,69.23
2018-02-10T10:59:07.495Z,65.87
2018-02-10T11:01:35.835Z,78.37
2018-02-10T11:04:03.381Z,76.10
2018-02-10T11:06:30.983Z,71.33
2018-02-10T11:08:58.536Z,62.13
2018-02-10T11:11:26.947Z,57.93
2018-02-10T11:13:54.497Z,72.03
2018-02-10T11:16:22.043Z,63.80
2018-02-10T11:18:49.605Z,57.03
2018-02-10T11:21:17.209Z,55.10
2018-02-10T11:23:45.607Z,72.73
2018-02-10T11:26:13.174Z,62.63
2018-02-10T11:28:40.732Z,70.27
2018-02-10T11:31:10.216Z,64.03
2018-02-10T11:33:38.570Z,60.37
2018-02-10T11:36:06.905Z,61.37
2018-02-10T11:38:35.211Z,70.50
2018-02-10T11:41:02.808Z,73.47
2018-02-10T11:43:31.172Z,62.47
2018-02-10T11:45:58.772Z,58.80
2018-02-10T11:48:26.367Z,77.87
2018-02-10T11:50:54.048Z,53.17
2018-02-10T11:53:21.685Z,68.00
2018-02-10T11:55:49.285Z,57.20
2018-02-10T11:58:17.010Z,51.53
2018-02-10T12:00:44.581Z,80.37
2018-02-10T12:03:12.940Z,64.70
2018-02-10T12:05:41.290Z,53.57
2018-02-10T12:08:11.336Z,70.13
2018-02-10T12:10:38.880Z,56.07
2018-02-10T12:13:06.469Z,51.30
2018-02-10T12:15:35.741Z,52.57
2018-02-10T12:18:03.299Z,63.50
2018-02-10T12:20:30.858Z,67.33
2018-02-10T12:22:59.154Z,43.67
2018-02-10T12:25:26.871Z,47.73
2018-02-10T12:27:54.459Z,46.63
2018-02-10T12:30:22.216Z,62.80
2018-02-10T12:32:49.788Z,55.87
2018-02-10T12:35:18.211Z,60.23
2018-02-10T12:37:45.767Z,51.60
2018-02-10T12:40:13.355Z,58.77
2018-02-10T12:42:40.896Z,46.17
2018-02-10T12:45:09.388Z,52.00
2018-02-10T12:47:45.710Z,53.00
2018-02-10T12:50:13.397Z,50.70
2018-02-10T12:52:40.950Z,56.60
2018-02-10T12:55:08.560Z,43.77
2018-02-10T12:57:37.661Z,41.97
2018-02-10T13:00:05.291Z,47.27
2018-02-10T13:02:32.945Z,51.60
2018-02-10T13:05:00.599Z,57.33
2018-02-10T13:07:28.228Z,53.70
2018-02-10T13:09:55.916Z,43.47
2018-02-10T13:12:23.461Z,46.80
2018-02-10T13:14:51.021Z,60.77
2018-02-10T13:17:18.630Z,52.60
2018-02-10T13:19:46.218Z,52.60
2018-02-10T13:22:13.783Z,51.50
2018-02-10T13:24:42.141Z,49.77
2018-02-10T13:27:09.717Z,47.97
2018-02-10T13:29:38.053Z,58.07
2018-02-10T13:32:06.394Z,51.43
2018-02-10T13:34:34.564Z,56.73
2018-02-10T13:37:02.145Z,50.23
2018-02-10T13:39:29.694Z,52.73
2018-02-10T13:41:58.112Z,57.63
2018-02-10T13:44:25.717Z,60.30
2018-02-10T13:46:55.236Z,58.33
2018-02-10T13:49:22.912Z,59.70
2018-02-10T13:51:50.602Z,53.53
2018-02-10T13:54:18.168Z,56.40
2018-02-10T13:56:45.734Z,49.40
2018-02-10T13:59:13.289Z,51.13
2018-02-10T14:01:40.871Z,49.27
2018-02-10T14:04:08.412Z,57.00
2018-02-10T14:06:36.784Z,46.07
2018-02-10T14:09:04.359Z,54.17
2018-02-10T14:11:32.704Z,55.53
2018-02-10T14:14:00.380Z,60.23
2018-02-10T14:16:28.216Z,56.80
2018-02-10T14:18:55.936Z,68.03
2018-02-10T14:21:23.532Z,73.10
2018-02-10T14:23:51.112Z,58.80
2018-02-10T14:26:18.694Z,56.97
2018-02-10T14:28:46.301Z,51.93
2018-02-10T14:31:13.853Z,46.03
2018-02-10T14:33:41.458Z,63.53
2018-02-10T14:36:09.896Z,50.00
2018-02-10T14:38:38.253Z,60.40
2018-02-10T14:41:07.485Z,57.60
2018-02-10T14:43:36.140Z,55.13
2018-02-10T14:46:04.467Z,59.30
2018-02-10T14:48:32.812Z,56.27
2018-02-10T14:51:01.181Z,55.33
2018-02-10T14:53:28.846Z,53.60
2018-02-10T14:55:56.413Z,55.77
2018-02-10T14:58:23.967Z,66.03
2018-02-10T15:00:52.429Z,51.83
2018-02-10T15:03:19.974Z,59.30
2018-02-10T15:05:47.645Z,63.53
2018-02-10T15:08:16.021Z,64.90
2018-02-10T15:10:43.581Z,64.63
2018-02-10T15:13:11.177Z,64.03
2018-02-10T15:15:39.227Z,64.77
2018-02-10T15:18:06.782Z,77.90
2018-02-10T15:20:34.356Z,82.57
2018-02-10T15:23:02.105Z,62.43
2018-02-10T15:25:29.665Z,64.17
2018-02-10T15:27:57.985Z,61.53
2018-02-10T15:30:38.322Z,58.93
2018-02-10T15:33:18.390Z,78.37
2018-02-10T15:35:46.173Z,64.23
2018-02-10T15:38:13.776Z,59.67
2018-02-10T15:40:41.388Z,64.43
2018-02-10T15:43:09.142Z,63.47
2018-02-10T15:45:36.729Z,67.30
2018-02-10T15:48:04.296Z,63.83
2018-02-10T15:50:31.967Z,59.47
2018-02-10T15:52:59.521Z,58.77
2018-02-10T15:55:27.122Z,58.77
2018-02-10T15:57:55.643Z,64.43
2018-02-10T16:00:24.044Z,64.47
2018-02-10T16:02:51.622Z,69.20
2018-02-10T16:05:19.313Z,56.40
2018-02-10T16:07:46.935Z,68.70
2018-02-10T16:10:14.981Z,66.00
2018-02-10T16:12:43.508Z,67.43
2018-02-10T16:15:11.077Z,61.37
2018-02-10T16:17:38.630Z,66.83
2018-02-10T16:20:06.325Z,57.43
2018-02-10T16:22:33.987Z,71.73
2018-02-10T16:25:01.542Z,60.53
2018-02-10T16:27:30.165Z,58.00
2018-02-10T16:29:57.788Z,73.43
2018-02-10T16:32:25.487Z,63.03
2018-02-10T16:34:53.215Z,69.00
2018-02-10T16:37:20.777Z,57.40
2018-02-10T16:39:48.377Z,64.50
2018-02-10T16:42:16.158Z,56.47
2018-02-10T16:44:44.495Z,57.93
2018-02-10T16:47:12.050Z,59.90
2018-02-10T16:49:39.724Z,63.63
2018-02-10T16:52:08.134Z,56.60
2018-02-10T16:54:35.746Z,63.23
2018-02-10T16:57:04.255Z,63.53
2018-02-10T16:59:31.831Z,64.60
2018-02-10T17:01:59.377Z,54.43
2018-02-10T17:04:27.781Z,67.07
2018-02-10T17:06:55.378Z,65.33
2018-02-10T17:09:23.031Z,65.47
2018-02-10T17:11:50.620Z,61.10
2018-02-10T17:14:19.000Z,62.77
2018-02-10T17:16:46.657Z,67.47
2018-02-10T17:19:14.210Z,64.20
2018-02-10T17:21:41.760Z,68.93
2018-02-10T17:24:09.417Z,78.57
2018-02-10T17:26:36.997Z,68.17
2018-02-10T17:29:05.613Z,73.03
2018-02-10T17:31:33.379Z,69.07
2018-02-10T17:34:01.722Z,62.67
2018-02-10T17:36:29.469Z,72.37
2018-02-10T17:38:57.940Z,64.73
2018-02-10T17:41:26.427Z,60.70
2018-02-10T17:43:54.231Z,66.03
2018-02-10T17:46:22.668Z,59.47
2018-02-10T17:48:51.020Z,70.43
2018-02-10T17:51:19.497Z,67.73
2018-02-10T17:53:47.862Z,61.33
2018-02-10T17:56:15.635Z,69.60
2018-02-10T17:58:44.002Z,65.00
2018-02-10T18:01:11.610Z,67.00
2018-02-10T18:03:39.967Z,76.63
2018-02-10T18:06:07.634Z,70.20
2018-02-10T18:08:36.010Z,69.77
2018-02-10T18:11:04.511Z,73.77
2018-02-10T18:13:32.155Z,68.43
2018-02-10T18:15:59.783Z,72.37
2018-02-10T18:18:27.739Z,70.63
2018-02-10T18:20:55.404Z,71.27
2018-02-10T18:23:22.958Z,75.17
2018-02-10T18:25:50.538Z,66.97
2018-02-10T18:28:18.253Z,74.17
2018-02-10T18:30:46.754Z,72.93
2018-02-10T18:33:15.215Z,73.30
2018-02-10T18:35:44.052Z,71.47
2018-02-10T18:38:13.976Z,68.90
2018-02-10T18:40:41.583Z,66.20
2018-02-10T18:43:09.967Z,70.83
2018-02-10T18:45:38.607Z,64.97
2018-02-10T18:48:06.241Z,68.13
2018-02-10T18:50:34.522Z,63.57
2018-02-10T18:53:02.228Z,65.63
2018-02-10T18:55:29.935Z,61.73
2018-02-10T18:57:57.601Z,63.80
2018-02-10T19:00:25.323Z,64.77
2018-02-10T19:02:53.051Z,60.57
2018-02-10T19:05:22.158Z,68.03
2018-02-10T19:07:51.811Z,62.30
2018-02-10T19:10:20.330Z,54.67
2018-02-10T19:12:48.044Z,59.50
2018-02-10T19:15:16.001Z,59.47
2018-02-10T19:17:43.652Z,61.53
2018-02-10T19:20:12.082Z,59.80
2018-02-10T19:22:39.807Z,60.73
2018-02-10T19:25:07.514Z,60.60
2018-02-10T19:27:36.147Z,62.10
2018-02-10T19:30:04.363Z,56.60
2018-02-10T19:32:31.971Z,51.50
2018-02-10T19:34:59.538Z,56.63
2018-02-10T19:37:27.984Z,48.70
2018-02-10T19:39:56.339Z,44.70
2018-02-10T19:42:24.670Z,47.60
2018-02-10T19:44:52.309Z,41.70
2018-02-10T19:47:20.654Z,42.63
2018-02-10T19:49:48.283Z,42.40
2018-02-10T19:52:16.667Z,46.70
2018-02-10T19:54:44.363Z,46.10
2018-02-10T19:57:12.036Z,38.33
2018-02-10T19:59:39.669Z,40.67
2018-02-10T20:02:07.380Z,40.47
2018-02-10T20:04:36.180Z,39.80
2018-02-10T20:07:04.431Z,42.93
2018-02-10T20:09:32.115Z,38.37
2018-02-10T20:11:59.787Z,41.23
2018-02-10T20:14:27.587Z,38.77
2018-02-10T20:19:35.457Z,41.20
2018-02-10T20:22:04.947Z,35.80
2018-02-10T20:24:34.291Z,35.53
2018-02-10T20:27:02.599Z,32.43
2018-02-10T20:29:30.312Z,35.67
2018-02-10T20:31:58.915Z,36.40
2018-02-10T20:34:27.306Z,36.73
2018-02-10T20:36:54.914Z,32.60
2018-02-10T20:39:22.597Z,36.80
2018-02-10T20:41:53.358Z,32.57
2018-02-10T20:44:21.750Z,38.03
2018-02-10T20:46:50.471Z,33.53
2018-02-10T20:49:18.056Z,37.17
2018-02-10T20:51:45.599Z,37.20
2018-02-10T20:56:51.995Z,34.00
2018-02-10T20:59:20.402Z,38.67
2018-02-10T21:01:48.011Z,37.30
2018-02-10T21:04:15.598Z,35.77
2018-02-10T21:06:43.933Z,33.80
2018-02-10T21:09:11.519Z,32.20
2018-02-10T21:11:39.062Z,31.30
2018-02-10T21:14:06.728Z,32.77
2018-02-10T21:16:34.343Z,34.60
2018-02-10T21:19:02.654Z,30.77
2018-02-10T21:21:30.240Z,31.10
2018-02-10T21:23:58.603Z,32.90
2018-02-10T21:26:26.191Z,32.30
2018-02-10T21:28:53.776Z,30.40
2018-02-10T21:31:21.375Z,31.43
2018-02-10T21:33:49.793Z,36.87
2018-02-10T21:36:17.363Z,35.53
2018-02-10T21:38:45.716Z,32.57
2018-02-10T21:41:14.089Z,29.23
2018-02-10T21:43:41.635Z,35.53
2018-02-10T21:46:09.271Z,32.37
2018-02-10T21:48:36.812Z,29.27
2018-02-10T21:51:04.386Z,28.90
2018-02-10T21:53:32.706Z,31.57
2018-02-10T21:56:00.275Z,31.47
2018-02-10T21:58:27.864Z,31.57
2018-02-10T22:00:55.441Z,32.10
2018-02-10T22:03:23.057Z,35.10
2018-02-10T22:05:50.658Z,30.87
2018-02-10T22:08:18.210Z,35.10
2018-02-10T22:10:45.780Z,29.83
2018-02-10T22:13:13.408Z,33.53
2018-02-10T22:15:40.970Z,48.23
2018-02-10T22:18:08.620Z,30.43
2018-02-10T22:20:36.926Z,32.97
2018-02-10T22:23:05.193Z,32.13
2018-02-10T22:25:32.793Z,31.60
2018-02-10T22:28:00.394Z,28.97
2018-02-10T22:30:28.111Z,30.90
2018-02-10T22:32:55.712Z,37.90
2018-02-10T22:35:23.310Z,28.43
2018-02-10T22:37:51.667Z,30.10
2018-02-10T22:40:20.030Z,28.70
2018-02-10T22:42:48.404Z,34.20
2018-02-10T22:45:15.964Z,28.60
2018-02-10T22:47:44.273Z,33.37
2018-02-10T22:50:11.842Z,28.47
2018-02-10T22:52:40.156Z,32.27
2018-02-10T22:55:07.738Z,33.87
2018-02-10T22:57:36.236Z,29.70
2018-02-10T23:00:03.868Z,36.03
2018-02-10T23:02:31.497Z,31.90
2018-02-10T23:04:59.066Z,33.23
2018-02-10T23:07:26.636Z,26.47
2018-02-10T23:09:54.996Z,28.73
2018-02-10T23:12:22.609Z,26.43
2018-02-10T23:14:50.212Z,29.37
2018-02-10T23:17:17.826Z,29.60
2018-02-10T23:19:45.403Z,31.13
2018-02-10T23:22:12.952Z,27.43
2018-02-10T23:24:40.548Z,29.20
2018-02-10T23:27:08.133Z,30.67
2018-02-10T23:29:35.670Z,27.63
2018-02-10T23:32:03.241Z,30.53
2018-02-10T23:34:31.570Z,26.90
2018-02-10T23:36:59.327Z,26.83
2018-02-10T23:39:26.889Z,28.53
2018-02-10T23:41:54.462Z,26.87
2018-02-10T23:44:22.041Z,29.37
2018-02-10T23:46:49.664Z,27.70
2018-02-10T23:49:17.204Z,26.60
2018-02-10T23:51:44.775Z,27.27
2018-02-10T23:54:12.337Z,29.43
2018-02-10T23:56:39.874Z,24.90
2018-02-10T23:59:07.471Z,29.23
